Mercer, Tennessee
Current Conditions -  °F | °C
As of 2:53 PM on Thursday 20 Nov 2014 (Local Time) from KMKL Reporting Station
Clear Clear  
Wind Chill: 50°   Ceiling: Unl
Heat Index: 50°   Visibility: 10mi
Dew Point: 22°   Wind: 0mph
Humidity: 33%   Direction: NA
Pressure: 30.22"   Gusts: NA
Location:  35.48°N, 89.04°W
Report Text: KMKL 202053Z 00000KT 10SM CLR 10/M06 A3022 RMK AO2 SLP234 T01001056 56015
Loading
Personal Weather Stations






























Interactive Weather Map New forecast layout! Learn more

10-Day Weather Forecast

Advertisements
Track Severe Weather on mobile